Time;durP1;ratioP1;P1;durP2;ratioP2;P2;SDS_P1;SDS_P2;PMS_P1;PMS_P2;Temp;Humidity;BMP_temperature;BMP_pressure;BME280_temperature;BME280_humidity;BME280_pressure;Samples;Min_cycle;Max_cycle;Signal;HPM_P1;HPM_P2
2023/12/08 00:00:16;;;;;;;45.00;12.75;;;-0.80;100.00;;;;;;4983529;28;20105;-83
2023/12/08 00:02:43;;;;;;;40.17;12.43;;;-0.80;100.00;;;;;;4987067;28;20125;-82
2023/12/08 00:05:10;;;;;;;36.15;11.45;;;-0.90;100.00;;;;;;4983131;28;20049;-82
2023/12/08 00:07:37;;;;;;;48.17;13.15;;;-0.90;100.00;;;;;;4989349;28;20108;-82
2023/12/08 00:10:04;;;;;;;39.38;12.57;;;-0.90;100.00;;;;;;4987987;28;20050;-82
2023/12/08 00:12:31;;;;;;;40.42;11.48;;;-0.90;100.00;;;;;;4987987;28;20112;-81
2023/12/08 00:14:58;;;;;;;40.78;12.05;;;-0.90;100.00;;;;;;4989447;28;20050;-83
2023/12/08 00:17:27;;;;;;;44.70;12.30;;;-0.90;100.00;;;;;;4991585;28;20042;-83
2023/12/08 00:19:54;;;;;;;52.70;14.70;;;-0.90;100.00;;;;;;4990070;28;20486;-83
2023/12/08 00:22:21;;;;;;;45.17;12.60;;;-0.90;100.00;;;;;;4990731;28;20130;-82
2023/12/08 00:24:49;;;;;;;44.40;13.63;;;-0.90;100.00;;;;;;4989066;28;20047;-82
2023/12/08 00:27:16;;;;;;;44.08;13.90;;;-0.80;100.00;;;;;;4993512;28;20058;-83
2023/12/08 00:30:05;;;;;;;64.70;17.50;;;-0.90;100.00;;;;;;4989479;28;20054;-82
2023/12/08 00:32:32;;;;;;;54.60;13.93;;;-0.90;100.00;;;;;;4990657;28;20056;-84
2023/12/08 00:34:59;;;;;;;49.78;14.90;;;-0.80;100.00;;;;;;4992489;28;20081;-83
2023/12/08 00:37:26;;;;;;;50.15;14.90;;;-0.80;100.00;;;;;;4992058;28;20593;-85
2023/12/08 00:39:53;;;;;;;48.00;14.55;;;-0.80;100.00;;;;;;4992295;28;20038;-83
2023/12/08 00:42:21;;;;;;;51.40;13.88;;;-0.80;100.00;;;;;;4989008;28;20046;-83
2023/12/08 00:44:47;;;;;;;54.30;14.50;;;-0.80;100.00;;;;;;4990090;28;20546;-82
2023/12/08 00:47:15;;;;;;;51.88;13.77;;;-0.80;100.00;;;;;;4984535;28;20054;-82
2023/12/08 00:49:42;;;;;;;57.67;13.88;;;-0.80;100.00;;;;;;4992207;28;20050;-83
2023/12/08 00:52:09;;;;;;;53.35;13.77;;;-0.80;100.00;;;;;;4990801;28;20082;-82
2023/12/08 00:54:36;;;;;;;48.63;13.25;;;-0.80;100.00;;;;;;4988244;28;20686;-83
2023/12/08 00:57:03;;;;;;;47.20;11.38;;;-0.80;100.00;;;;;;4988427;28;20094;-83
2023/12/08 00:59:30;;;;;;;40.85;11.93;;;-0.80;100.00;;;;;;4988269;28;20101;-83
2023/12/08 01:01:57;;;;;;;45.45;12.43;;;-0.80;100.00;;;;;;5001427;23;20350;-83
2023/12/08 01:04:24;;;;;;;39.83;10.57;;;-0.80;100.00;;;;;;5009156;28;20173;-83
2023/12/08 01:06:51;;;;;;;39.22;10.90;;;-0.90;100.00;;;;;;5004413;28;20049;-83
2023/12/08 01:09:18;;;;;;;43.70;11.57;;;-0.90;100.00;;;;;;5004708;28;20081;-83
2023/12/08 01:11:45;;;;;;;40.92;10.85;;;-0.90;100.00;;;;;;5003344;28;20116;-84
2023/12/08 01:14:11;;;;;;;32.60;10.27;;;-0.90;100.00;;;;;;5006651;28;20045;-84
2023/12/08 01:16:41;;;;;;;35.38;10.63;;;-0.90;100.00;;;;;;5005171;28;20049;-84
2023/12/08 01:19:10;;;;;;;33.90;10.93;;;-0.90;100.00;;;;;;5009285;28;20061;-83
2023/12/08 01:21:38;;;;;;;45.72;12.10;;;-0.90;100.00;;;;;;5008512;28;20144;-83
2023/12/08 01:24:06;;;;;;;47.58;13.30;;;-0.90;100.00;;;;;;5000857;28;20042;-83
2023/12/08 01:26:33;;;;;;;36.72;10.38;;;-0.90;100.00;;;;;;5009711;28;20108;-83
2023/12/08 01:29:00;;;;;;;36.70;11.13;;;-0.90;100.00;;;;;;5008047;28;20068;-85
2023/12/08 01:31:27;;;;;;;36.10;10.77;;;-0.90;100.00;;;;;;5004916;28;20483;-84
2023/12/08 01:33:54;;;;;;;44.40;10.55;;;-0.90;100.00;;;;;;5000979;28;20050;-85
2023/12/08 01:36:21;;;;;;;43.58;12.05;;;-0.90;100.00;;;;;;4998176;28;20054;-85
2023/12/08 01:39:08;;;;;;;39.25;11.20;;;-0.90;100.00;;;;;;5004302;28;20046;-85
2023/12/08 01:41:35;;;;;;;39.92;11.68;;;-0.90;100.00;;;;;;5009154;28;20046;-83
2023/12/08 01:44:02;;;;;;;48.63;13.10;;;-0.90;100.00;;;;;;5004224;28;20057;-82
2023/12/08 01:46:30;;;;;;;39.47;11.02;;;-0.90;100.00;;;;;;5003378;28;20548;-82
2023/12/08 01:48:58;;;;;;;39.28;12.18;;;-0.90;100.00;;;;;;4999534;28;20518;-83
2023/12/08 01:51:25;;;;;;;44.20;10.20;;;-0.90;100.00;;;;;;5001172;28;20128;-84
2023/12/08 01:53:52;;;;;;;43.53;11.20;;;-0.90;100.00;;;;;;5002868;28;20042;-84
2023/12/08 01:56:20;;;;;;;42.70;11.30;;;-0.90;100.00;;;;;;5008377;28;20077;-84
2023/12/08 01:58:47;;;;;;;37.75;10.98;;;-0.90;100.00;;;;;;5001357;28;20073;-85
2023/12/08 02:01:14;;;;;;;41.45;11.98;;;-0.90;100.00;;;;;;5002579;28;20046;-85
2023/12/08 02:03:42;;;;;;;35.90;11.32;;;-1.00;100.00;;;;;;4998667;28;20049;-86
2023/12/08 02:06:10;;;;;;;42.78;12.18;;;-0.90;100.00;;;;;;5009323;28;20045;-85
2023/12/08 02:08:37;;;;;;;35.13;11.35;;;-0.90;100.00;;;;;;5008748;28;20054;-86
2023/12/08 02:11:05;;;;;;;46.83;11.48;;;-0.90;100.00;;;;;;5006410;28;20045;-83
2023/12/08 02:13:33;;;;;;;39.25;11.75;;;-0.90;100.00;;;;;;4998531;28;20137;-84
2023/12/08 02:16:24;;;;;;;39.80;11.23;;;-0.90;100.00;;;;;;5003223;28;20100;-83
2023/12/08 02:18:51;;;;;;;48.88;12.00;;;-0.90;100.00;;;;;;4999127;28;20054;-84
2023/12/08 02:21:19;;;;;;;50.85;12.48;;;-0.90;100.00;;;;;;5004145;28;20037;-85
2023/12/08 02:23:49;;;;;;;46.40;11.93;;;-0.90;100.00;;;;;;5009151;28;20045;-84
2023/12/08 02:26:19;;;;;;;41.95;12.73;;;-0.90;100.00;;;;;;5000893;28;20095;-84
2023/12/08 02:28:46;;;;;;;45.83;11.70;;;-0.90;100.00;;;;;;5004017;28;20127;-82
2023/12/08 02:31:18;;;;;;;44.30;11.60;;;-0.90;100.00;;;;;;4998445;28;20058;-82
2023/12/08 02:33:48;;;;;;;36.58;10.38;;;-0.90;100.00;;;;;;4998472;28;20120;-82
2023/12/08 02:36:17;;;;;;;59.97;11.07;;;-0.90;100.00;;;;;;4999941;28;20696;-83
2023/12/08 02:38:50;;;;;;;42.88;11.65;;;-0.90;100.00;;;;;;5000901;28;20053;-83
2023/12/08 02:41:17;;;;;;;55.17;12.43;;;-0.90;100.00;;;;;;5007227;28;20041;-84
2023/12/08 02:43:44;;;;;;;40.00;11.10;;;-0.90;100.00;;;;;;5006000;28;20465;-83
2023/12/08 02:46:11;;;;;;;83.05;12.45;;;-0.90;100.00;;;;;;5004140;28;20041;-83
2023/12/08 02:48:38;;;;;;;48.40;11.68;;;-1.00;100.00;;;;;;5002199;28;20065;-83
2023/12/08 02:51:06;;;;;;;45.28;10.60;;;-1.00;100.00;;;;;;5004873;28;20125;-84
2023/12/08 02:53:33;;;;;;;36.63;10.20;;;-1.00;100.00;;;;;;4993117;28;20046;-85
2023/12/08 02:55:59;;;;;;;35.50;10.27;;;-1.00;100.00;;;;;;5004213;28;20042;-84
2023/12/08 02:58:26;;;;;;;32.90;10.85;;;-1.00;100.00;;;;;;5005349;28;20077;-83
2023/12/08 03:00:53;;;;;;;29.58;9.50;;;-1.00;100.00;;;;;;5000380;28;20050;-84
2023/12/08 03:03:20;;;;;;;29.20;9.38;;;-1.00;100.00;;;;;;5002127;28;20360;-83
2023/12/08 03:08:16;;;;;;;45.47;10.95;;;-1.00;100.00;;;;;;5031877;28;20414;-85
2023/12/08 03:10:42;;;;;;;44.05;11.90;;;-1.00;100.00;;;;;;5024061;28;20056;-84
2023/12/08 03:13:09;;;;;;;52.17;12.45;;;-0.90;100.00;;;;;;5018148;28;20041;-84
2023/12/08 03:15:36;;;;;;;51.20;12.60;;;-1.00;100.00;;;;;;5027518;28;20077;-84
2023/12/08 03:18:03;;;;;;;60.25;12.82;;;-1.00;100.00;;;;;;5027256;28;20453;-84
2023/12/08 03:20:31;;;;;;;52.10;11.43;;;-1.00;100.00;;;;;;5018957;28;20497;-85
2023/12/08 03:22:57;;;;;;;49.65;11.15;;;-1.00;100.00;;;;;;5022231;28;20044;-83
2023/12/08 03:25:24;;;;;;;34.70;11.50;;;-1.00;100.00;;;;;;5013202;28;20058;-82
2023/12/08 03:27:51;;;;;;;38.40;11.45;;;-1.10;100.00;;;;;;5028367;28;20050;-84
2023/12/08 03:30:18;;;;;;;26.90;9.20;;;-1.10;100.00;;;;;;5030697;28;20046;-82
2023/12/08 03:32:45;;;;;;;22.83;8.80;;;-1.10;100.00;;;;;;5028417;28;20056;-82
2023/12/08 03:35:12;;;;;;;32.67;10.13;;;-1.10;100.00;;;;;;5021803;28;20132;-82
2023/12/08 03:37:39;;;;;;;44.53;10.55;;;-1.10;100.00;;;;;;5031399;28;20490;-84
2023/12/08 03:40:07;;;;;;;31.15;10.02;;;-1.10;100.00;;;;;;5028552;28;20053;-84
2023/12/08 03:42:36;;;;;;;43.97;10.52;;;-1.20;100.00;;;;;;5030624;28;20049;-85
2023/12/08 03:45:05;;;;;;;49.03;10.38;;;-1.20;100.00;;;;;;5025949;28;20128;-84
2023/12/08 03:47:32;;;;;;;45.53;10.48;;;-1.20;100.00;;;;;;5030302;28;20053;-82
2023/12/08 03:49:59;;;;;;;36.80;9.55;;;-1.20;100.00;;;;;;5024757;28;20133;-83
2023/12/08 03:52:26;;;;;;;31.65;10.77;;;-1.20;100.00;;;;;;5035054;28;20053;-85
2023/12/08 03:54:53;;;;;;;30.17;9.88;;;-1.20;100.00;;;;;;5029154;28;20494;-85
2023/12/08 03:57:21;;;;;;;46.65;10.05;;;-1.20;100.00;;;;;;5038364;28;20061;-84
2023/12/08 03:59:47;;;;;;;30.13;9.40;;;-1.20;100.00;;;;;;5026994;28;20124;-83
2023/12/08 04:02:15;;;;;;;39.47;10.70;;;-1.20;100.00;;;;;;5021738;28;20767;-84
2023/12/08 04:04:42;;;;;;;59.55;11.00;;;-1.20;100.00;;;;;;5028478;28;20081;-82
2023/12/08 04:07:08;;;;;;;40.25;10.48;;;-1.20;100.00;;;;;;5028018;28;20103;-83
2023/12/08 04:09:35;;;;;;;41.92;11.80;;;-1.20;100.00;;;;;;5022862;28;20045;-83
2023/12/08 04:12:02;;;;;;;40.33;10.38;;;-1.20;100.00;;;;;;5021768;28;20053;-84
2023/12/08 04:14:29;;;;;;;37.95;10.00;;;-1.20;100.00;;;;;;5025940;28;20763;-84
2023/12/08 04:16:56;;;;;;;32.63;10.65;;;-1.30;100.00;;;;;;5028945;28;20064;-83
2023/12/08 04:19:24;;;;;;;45.80;9.77;;;-1.30;100.00;;;;;;5024495;28;20103;-84
2023/12/08 04:21:51;;;;;;;43.88;9.75;;;-1.30;100.00;;;;;;5023566;28;20049;-84
2023/12/08 04:24:18;;;;;;;35.47;9.90;;;-1.20;100.00;;;;;;5025844;28;20045;-84
2023/12/08 04:26:45;;;;;;;30.73;10.80;;;-1.30;100.00;;;;;;5018725;28;20100;-83
2023/12/08 04:29:12;;;;;;;44.53;11.15;;;-1.30;100.00;;;;;;5025997;28;20103;-83
2023/12/08 04:31:39;;;;;;;44.42;10.23;;;-1.30;100.00;;;;;;5027620;28;20053;-84
2023/12/08 04:34:06;;;;;;;44.15;10.55;;;-1.30;100.00;;;;;;5024180;28;20045;-83
2023/12/08 04:36:33;;;;;;;50.17;13.52;;;-1.30;100.00;;;;;;5025527;28;20053;-82
2023/12/08 04:39:00;;;;;;;53.88;12.13;;;-1.30;100.00;;;;;;5027091;28;20235;-82
2023/12/08 04:41:27;;;;;;;45.80;11.73;;;-1.20;100.00;;;;;;5017402;28;20054;-82
2023/12/08 04:43:54;;;;;;;38.00;11.05;;;-1.20;100.00;;;;;;5018766;28;20101;-82
2023/12/08 04:46:20;;;;;;;42.22;11.25;;;-1.20;100.00;;;;;;5029336;28;20056;-83
2023/12/08 04:48:47;;;;;;;43.38;11.23;;;-1.20;100.00;;;;;;5031440;23;20104;-83
2023/12/08 04:51:17;;;;;;;46.50;11.13;;;-1.30;100.00;;;;;;5019273;23;20037;-85
2023/12/08 04:53:44;;;;;;;44.75;12.15;;;-1.20;100.00;;;;;;4991548;28;20042;-85
2023/12/08 04:56:12;;;;;;;48.97;12.90;;;-1.20;100.00;;;;;;4998399;28;20054;-85
2023/12/08 04:58:47;;;;;;;48.42;13.65;;;-1.20;100.00;;;;;;4990242;28;20534;-84
2023/12/08 05:01:14;;;;;;;53.72;13.77;;;-1.20;100.00;;;;;;4989361;28;20054;-83
2023/12/08 05:03:41;;;;;;;53.05;12.68;;;-1.20;100.00;;;;;;4993260;28;20046;-84
2023/12/08 05:06:08;;;;;;;43.45;12.57;;;-1.20;100.00;;;;;;4992784;28;20093;-84
2023/12/08 05:08:41;;;;;;;52.40;11.27;;;-1.20;100.00;;;;;;4989127;28;20050;-84
2023/12/08 05:11:09;;;;;;;51.17;12.02;;;-1.20;100.00;;;;;;4995166;28;20487;-84
2023/12/08 05:13:35;;;;;;;57.85;14.00;;;-1.20;100.00;;;;;;5001582;28;20498;-84
2023/12/08 05:16:02;;;;;;;55.53;12.40;;;-1.20;100.00;;;;;;4991442;28;20121;-84
2023/12/08 05:18:29;;;;;;;57.72;12.65;;;-1.20;100.00;;;;;;5003319;23;20038;-87
2023/12/08 05:20:56;;;;;;;63.38;12.82;;;-1.10;100.00;;;;;;5003457;28;20057;-87
2023/12/08 05:23:23;;;;;;;63.40;13.65;;;-1.10;100.00;;;;;;5000025;28;20046;-86
2023/12/08 05:25:50;;;;;;;59.88;13.90;;;-1.10;100.00;;;;;;5004589;28;20085;-87
2023/12/08 05:28:17;;;;;;;54.17;14.40;;;-1.10;100.00;;;;;;5007669;28;20052;-87
2023/12/08 05:30:45;;;;;;;46.33;13.50;;;-1.10;100.00;;;;;;5003040;28;20081;-86
2023/12/08 05:33:12;;;;;;;57.80;13.60;;;-1.10;100.00;;;;;;5004335;28;20100;-86
2023/12/08 05:35:39;;;;;;;54.25;14.45;;;-1.10;100.00;;;;;;5003140;28;20149;-87
2023/12/08 05:38:06;;;;;;;56.47;13.77;;;-1.00;100.00;;;;;;5000866;28;20137;-89
2023/12/08 05:40:33;;;;;;;65.05;14.73;;;-1.00;100.00;;;;;;4998724;28;20054;-87
2023/12/08 05:43:00;;;;;;;46.00;13.05;;;-1.00;100.00;;;;;;4998643;28;20061;-87
2023/12/08 05:45:28;;;;;;;69.82;15.00;;;-1.00;100.00;;;;;;4999387;28;20069;-85
2023/12/08 05:48:05;;;;;;;54.92;13.80;;;-1.00;100.00;;;;;;5000560;28;20054;-86
2023/12/08 05:50:32;;;;;;;83.88;17.55;;;-1.00;100.00;;;;;;5003314;28;20046;-87
2023/12/08 05:52:59;;;;;;;52.30;15.43;;;-1.00;100.00;;;;;;4999691;28;20058;-87
2023/12/08 05:58:19;;;;;;;62.65;15.75;;;-0.90;100.00;;;;;;4983586;28;20050;-84
2023/12/08 06:00:50;;;;;;;63.90;15.05;;;-0.90;100.00;;;;;;4977726;28;20152;-84
2023/12/08 06:03:20;;;;;;;61.10;14.98;;;-0.90;100.00;;;;;;5000304;28;20050;-90
2023/12/08 06:05:47;;;;;;;63.95;15.00;;;-0.90;100.00;;;;;;5001236;28;20046;-83
2023/12/08 06:08:14;;;;;;;57.05;13.40;;;-0.90;100.00;;;;;;4991387;28;20057;-84
2023/12/08 06:10:44;;;;;;;90.65;17.17;;;-0.90;100.00;;;;;;4996064;28;20066;-85
2023/12/08 06:13:25;;;;;;;82.35;16.27;;;-0.90;100.00;;;;;;4987870;28;20051;-85
2023/12/08 06:15:52;;;;;;;67.82;16.65;;;-0.90;100.00;;;;;;4978899;28;20093;-89
2023/12/08 06:18:19;;;;;;;80.72;16.65;;;-0.90;100.00;;;;;;4991754;28;20042;-89
2023/12/08 06:20:46;;;;;;;70.45;16.55;;;-0.90;100.00;;;;;;4999306;28;20100;-87
2023/12/08 06:23:13;;;;;;;78.82;16.60;;;-0.90;100.00;;;;;;4987544;28;20423;-87
2023/12/08 06:25:40;;;;;;;69.97;16.73;;;-0.90;100.00;;;;;;4993631;28;20104;-86
2023/12/08 06:28:07;;;;;;;71.50;15.55;;;-0.90;100.00;;;;;;4978530;28;20047;-86
2023/12/08 06:30:34;;;;;;;82.63;15.23;;;-0.90;100.00;;;;;;4990235;28;20115;-85
2023/12/08 06:33:01;;;;;;;78.93;16.23;;;-0.90;100.00;;;;;;4990383;28;20110;-88
2023/12/08 06:35:28;;;;;;;83.25;16.13;;;-0.80;100.00;;;;;;4977330;28;20121;-88
2023/12/08 06:37:55;;;;;;;84.78;16.00;;;-0.80;100.00;;;;;;4991513;28;20106;-86
2023/12/08 06:40:22;;;;;;;88.90;16.27;;;-0.80;100.00;;;;;;4994678;28;20542;-86
2023/12/08 06:42:49;;;;;;;65.15;15.07;;;-0.80;100.00;;;;;;4974809;28;20105;-85
2023/12/08 06:45:15;;;;;;;58.75;15.40;;;-0.80;100.00;;;;;;4984728;28;20400;-85
2023/12/08 06:47:42;;;;;;;70.35;15.25;;;-0.80;100.00;;;;;;4978924;28;20047;-84
2023/12/08 06:50:10;;;;;;;82.00;17.02;;;-0.80;100.00;;;;;;4985130;28;20046;-84
2023/12/08 06:52:37;;;;;;;76.05;17.88;;;-0.80;100.00;;;;;;4991713;28;20073;-84
2023/12/08 06:55:04;;;;;;;156.20;21.00;;;-0.80;100.00;;;;;;4985308;28;20492;-84
2023/12/08 06:57:32;;;;;;;77.47;16.77;;;-0.70;100.00;;;;;;4979119;28;20043;-84
2023/12/08 06:59:58;;;;;;;75.05;16.63;;;-0.70;100.00;;;;;;4999264;28;20105;-84
2023/12/08 07:02:27;;;;;;;80.90;18.30;;;-0.70;100.00;;;;;;4986526;28;20054;-84
2023/12/08 07:04:54;;;;;;;79.88;17.20;;;-0.70;100.00;;;;;;4993738;28;20049;-84
2023/12/08 07:07:22;;;;;;;81.53;18.88;;;-0.70;100.00;;;;;;4986935;28;20655;-85
2023/12/08 07:09:49;;;;;;;69.80;16.63;;;-0.60;100.00;;;;;;5001030;28;20057;-84
2023/12/08 07:12:15;;;;;;;100.97;18.02;;;-0.60;100.00;;;;;;4985816;28;20057;-85
2023/12/08 07:14:42;;;;;;;63.20;16.42;;;-0.60;100.00;;;;;;4982729;28;20065;-84
2023/12/08 07:17:09;;;;;;;60.53;15.15;;;-0.60;100.00;;;;;;4976556;28;20538;-84
2023/12/08 07:19:40;;;;;;;71.55;15.63;;;-0.50;100.00;;;;;;5000103;28;20061;-85
2023/12/08 07:22:07;;;;;;;74.82;16.60;;;-0.50;100.00;;;;;;4998072;28;20105;-85
2023/12/08 07:24:37;;;;;;;65.40;15.70;;;-0.50;100.00;;;;;;4984922;28;20059;-85
2023/12/08 07:27:04;;;;;;;76.10;19.08;;;-0.50;100.00;;;;;;4999423;28;20449;-84
2023/12/08 07:29:31;;;;;;;67.15;18.27;;;-0.50;100.00;;;;;;4981794;28;20053;-85
2023/12/08 07:31:58;;;;;;;81.10;16.42;;;-0.50;100.00;;;;;;4979002;28;20055;-84
2023/12/08 07:34:25;;;;;;;76.65;18.20;;;-0.40;100.00;;;;;;4986406;28;20069;-84
2023/12/08 07:36:52;;;;;;;66.00;17.95;;;-0.40;100.00;;;;;;5007889;28;20105;-84
2023/12/08 07:39:19;;;;;;;79.63;18.50;;;-0.40;100.00;;;;;;5009614;28;20550;-84
2023/12/08 07:41:46;;;;;;;90.35;19.45;;;-0.40;100.00;;;;;;4984581;28;20713;-84
2023/12/08 07:44:13;;;;;;;80.88;17.85;;;-0.40;100.00;;;;;;4981154;28;20047;-85
2023/12/08 07:46:40;;;;;;;72.80;17.13;;;-0.40;100.00;;;;;;4996274;28;20800;-85
2023/12/08 07:49:08;;;;;;;74.57;18.88;;;-0.30;100.00;;;;;;4988318;28;20049;-84
2023/12/08 07:51:36;;;;;;;75.00;17.23;;;-0.30;100.00;;;;;;4991599;28;20049;-84
2023/12/08 07:54:03;;;;;;;76.53;18.33;;;-0.30;100.00;;;;;;4998402;28;20115;-84
2023/12/08 07:56:30;;;;;;;81.85;16.83;;;-0.30;100.00;;;;;;4988307;28;20137;-84
2023/12/08 07:58:57;;;;;;;66.90;16.73;;;-0.20;100.00;;;;;;4987902;28;20737;-84
2023/12/08 08:01:24;;;;;;;65.95;17.98;;;-0.20;100.00;;;;;;4981008;28;20136;-84
2023/12/08 08:03:51;;;;;;;71.60;18.63;;;-0.20;100.00;;;;;;4987621;28;20054;-84
2023/12/08 08:06:18;;;;;;;78.63;21.63;;;-0.10;100.00;;;;;;4989150;28;20042;-84
2023/12/08 08:08:45;;;;;;;80.22;21.05;;;-0.10;100.00;;;;;;4990916;28;20824;-84
2023/12/08 08:11:12;;;;;;;85.07;20.65;;;-0.10;100.00;;;;;;5001749;28;20857;-84
2023/12/08 08:13:39;;;;;;;88.25;18.13;;;0.00;100.00;;;;;;4986140;28;20058;-84
2023/12/08 08:16:06;;;;;;;86.97;20.55;;;0.00;100.00;;;;;;4976791;28;20050;-84
2023/12/08 08:18:33;;;;;;;67.55;19.23;;;0.00;100.00;;;;;;5011966;22;20057;-86
2023/12/08 08:21:00;;;;;;;70.32;17.35;;;0.00;100.00;;;;;;4989984;28;20061;-86
2023/12/08 08:23:27;;;;;;;74.82;18.00;;;0.00;100.00;;;;;;4979836;28;20092;-86
2023/12/08 08:25:55;;;;;;;70.63;17.25;;;0.00;100.00;;;;;;4982182;28;20062;-86
2023/12/08 08:28:26;;;;;;;72.65;17.88;;;0.00;100.00;;;;;;4979307;28;20054;-84
2023/12/08 08:30:53;;;;;;;70.57;18.40;;;0.10;100.00;;;;;;4981559;28;20507;-86
2023/12/08 08:33:20;;;;;;;73.50;17.55;;;0.10;100.00;;;;;;4980830;28;20054;-86
2023/12/08 08:35:47;;;;;;;66.30;18.67;;;0.10;100.00;;;;;;4986063;28;20539;-86
2023/12/08 08:38:14;;;;;;;78.30;19.10;;;0.20;100.00;;;;;;4971372;28;20698;-86
2023/12/08 08:40:42;;;;;;;81.10;18.98;;;0.20;100.00;;;;;;4986495;28;20113;-85
2023/12/08 08:43:08;;;;;;;77.47;19.15;;;0.20;100.00;;;;;;4984634;28;20054;-85
2023/12/08 08:45:35;;;;;;;115.35;34.38;;;0.20;100.00;;;;;;4986206;28;20058;-85
2023/12/08 08:48:03;;;;;;;83.75;21.77;;;0.20;100.00;;;;;;4981399;28;20113;-85
2023/12/08 08:50:31;;;;;;;90.25;22.40;;;0.20;100.00;;;;;;4984544;28;20049;-85
2023/12/08 08:53:14;;;;;;;75.25;19.92;;;0.20;100.00;;;;;;4987167;28;20050;-86
2023/12/08 08:55:40;;;;;;;90.15;20.48;;;0.30;100.00;;;;;;4980712;28;20066;-86
2023/12/08 08:58:07;;;;;;;73.35;19.98;;;0.30;100.00;;;;;;4981367;28;20098;-85
2023/12/08 09:00:34;;;;;;;79.28;20.27;;;0.30;100.00;;;;;;4979560;28;20074;-85
2023/12/08 09:03:02;;;;;;;67.10;17.90;;;0.40;100.00;;;;;;4979426;28;20065;-85
2023/12/08 09:05:30;;;;;;;80.72;21.00;;;0.40;100.00;;;;;;4981035;28;20110;-85
2023/12/08 09:07:57;;;;;;;73.10;19.88;;;0.40;100.00;;;;;;4983948;28;20046;-85
2023/12/08 09:10:24;;;;;;;84.57;22.75;;;0.40;100.00;;;;;;4985070;28;20046;-85
2023/12/08 09:12:51;;;;;;;79.50;22.55;;;0.50;100.00;;;;;;4982170;28;20061;-84
2023/12/08 09:15:18;;;;;;;74.55;21.88;;;0.50;100.00;;;;;;4983880;28;20424;-84
2023/12/08 09:17:45;;;;;;;87.07;20.42;;;0.50;100.00;;;;;;4982643;28;20510;-85
2023/12/08 09:20:14;;;;;;;79.13;21.75;;;0.60;100.00;;;;;;4976961;28;20047;-85
2023/12/08 09:22:41;;;;;;;66.38;19.65;;;0.60;100.00;;;;;;4981524;28;20156;-84
2023/12/08 09:25:09;;;;;;;72.78;20.25;;;0.70;100.00;;;;;;4980401;28;20090;-84
2023/12/08 09:27:36;;;;;;;75.60;20.95;;;0.70;100.00;;;;;;4973034;28;20113;-84
2023/12/08 09:30:05;;;;;;;77.82;21.00;;;0.70;100.00;;;;;;4982428;28;20054;-83
2023/12/08 09:32:32;;;;;;;71.88;20.75;;;0.70;100.00;;;;;;4991148;23;20058;-85
2023/12/08 09:34:59;;;;;;;62.38;18.58;;;0.80;100.00;;;;;;4999066;28;20065;-84
2023/12/08 09:37:26;;;;;;;73.15;22.38;;;0.80;100.00;;;;;;4999127;28;20530;-84
2023/12/08 09:40:05;;;;;;;67.18;21.33;;;0.80;100.00;;;;;;4999578;28;20058;-84
2023/12/08 09:42:39;;;;;;;74.10;20.42;;;0.80;100.00;;;;;;5008439;28;20231;-84
2023/12/08 09:45:11;;;;;;;68.38;19.42;;;0.80;100.00;;;;;;5004548;28;20532;-84
2023/12/08 09:47:41;;;;;;;76.45;21.08;;;0.90;100.00;;;;;;5003089;28;20054;-84
2023/12/08 09:50:12;;;;;;;88.45;21.08;;;0.90;100.00;;;;;;5011773;28;20049;-84
2023/12/08 09:52:40;;;;;;;80.40;24.40;;;0.90;100.00;;;;;;4999945;28;20141;-84
2023/12/08 09:55:07;;;;;;;81.32;21.35;;;0.90;100.00;;;;;;5005619;28;20076;-84
2023/12/08 09:57:35;;;;;;;72.55;22.13;;;0.90;100.00;;;;;;5001748;28;20053;-84
2023/12/08 10:00:11;;;;;;;59.63;19.95;;;1.00;100.00;;;;;;5004205;28;20048;-84
2023/12/08 10:02:39;;;;;;;91.72;24.35;;;0.90;100.00;;;;;;5009244;28;20060;-83
2023/12/08 10:05:06;;;;;;;82.60;23.63;;;1.00;100.00;;;;;;5001408;28;20070;-83
2023/12/08 10:07:35;;;;;;;82.13;24.50;;;1.00;100.00;;;;;;4995617;28;20050;-83
2023/12/08 10:10:02;;;;;;;72.60;21.65;;;1.00;100.00;;;;;;5000862;28;20058;-83
2023/12/08 10:12:29;;;;;;;84.90;24.83;;;1.00;100.00;;;;;;5004765;28;20096;-83
2023/12/08 10:14:58;;;;;;;79.07;23.92;;;0.90;100.00;;;;;;5004695;28;20080;-84
2023/12/08 10:17:26;;;;;;;86.88;23.67;;;0.90;100.00;;;;;;4995282;28;20046;-84
2023/12/08 10:20:10;;;;;;;83.57;23.08;;;0.90;100.00;;;;;;5003303;28;20128;-84
2023/12/08 10:22:52;;;;;;;74.38;23.30;;;0.90;100.00;;;;;;5000787;28;20521;-83
2023/12/08 10:25:24;;;;;;;86.93;23.50;;;0.90;100.00;;;;;;4999544;28;20041;-83
2023/12/08 10:27:55;;;;;;;78.75;20.10;;;0.90;100.00;;;;;;5003218;28;20107;-84
2023/12/08 10:30:25;;;;;;;77.60;20.08;;;0.80;100.00;;;;;;5001151;28;20054;-85
2023/12/08 10:32:52;;;;;;;88.05;24.02;;;0.90;100.00;;;;;;4999534;28;20050;-81
2023/12/08 10:35:21;;;;;;;91.90;24.02;;;0.90;100.00;;;;;;5004841;28;20062;-81
2023/12/08 10:37:48;;;;;;;73.88;20.58;;;0.90;100.00;;;;;;4997105;28;20139;-84
2023/12/08 10:40:17;;;;;;;73.38;22.67;;;0.90;100.00;;;;;;4992219;28;20045;-84
2023/12/08 10:42:47;;;;;;;77.90;22.85;;;0.80;100.00;;;;;;5002963;28;20100;-84
2023/12/08 10:45:15;;;;;;;82.47;22.58;;;0.90;100.00;;;;;;5004865;28;20077;-85
2023/12/08 10:47:43;;;;;;;77.10;21.02;;;0.80;100.00;;;;;;5002536;28;20053;-85
2023/12/08 10:50:12;;;;;;;87.93;24.85;;;0.80;100.00;;;;;;4999069;28;20054;-85
2023/12/08 10:52:40;;;;;;;65.63;18.98;;;0.80;100.00;;;;;;4998145;28;20049;-85
2023/12/08 10:55:09;;;;;;;75.25;19.60;;;0.80;100.00;;;;;;4996598;28;20060;-83
2023/12/08 10:57:37;;;;;;;77.63;21.70;;;0.80;100.00;;;;;;4998956;28;20060;-83
2023/12/08 11:00:19;;;;;;;74.47;22.35;;;0.80;100.00;;;;;;4999982;28;20049;-84
2023/12/08 11:02:48;;;;;;;65.97;19.98;;;0.80;100.00;;;;;;4995642;28;20123;-84
2023/12/08 11:05:26;;;;;;;75.82;21.42;;;0.90;100.00;;;;;;4993114;28;20053;-83
2023/12/08 11:07:55;;;;;;;59.03;19.75;;;0.80;100.00;;;;;;4995975;28;20691;-83
2023/12/08 11:10:25;;;;;;;58.67;16.42;;;0.90;100.00;;;;;;4998823;28;20422;-83
2023/12/08 11:12:59;;;;;;;65.32;20.45;;;0.90;100.00;;;;;;5002674;28;20060;-84
2023/12/08 11:15:31;;;;;;;65.90;19.33;;;0.80;100.00;;;;;;5007236;28;20057;-83
2023/12/08 11:18:12;;;;;;;64.32;20.27;;;0.80;100.00;;;;;;5004041;28;20054;-84
2023/12/08 11:20:40;;;;;;;61.92;16.95;;;0.80;100.00;;;;;;5004053;28;20097;-84
2023/12/08 11:23:07;;;;;;;64.53;17.63;;;0.80;100.00;;;;;;5004484;28;20462;-84
2023/12/08 11:25:42;;;;;;;61.65;18.83;;;0.80;100.00;;;;;;5006123;28;20077;-85
2023/12/08 11:28:14;;;;;;;61.90;19.27;;;0.90;100.00;;;;;;5003635;28;20066;-85
2023/12/08 11:30:53;;;;;;;61.53;19.60;;;0.90;100.00;;;;;;5004720;28;20064;-84
2023/12/08 11:34:04;;;;;;;58.25;18.83;;;0.80;100.00;;;;;;5001871;28;20065;-84
2023/12/08 11:36:33;;;;;;;63.63;18.30;;;0.80;100.00;;;;;;4991639;28;20050;-83
2023/12/08 11:39:38;;;;;;;59.55;18.27;;;0.80;100.00;;;;;;5004698;28;20069;-83
2023/12/08 11:42:13;;;;;;;51.22;17.85;;;0.80;100.00;;;;;;4991401;28;20050;-83
2023/12/08 11:44:44;;;;;;;57.03;18.13;;;0.90;100.00;;;;;;5000121;28;20046;-84
2023/12/08 11:47:16;;;;;;;62.35;18.17;;;0.90;100.00;;;;;;5000129;28;20053;-83
2023/12/08 11:49:47;;;;;;;70.03;20.45;;;0.80;100.00;;;;;;4995977;28;20586;-83
2023/12/08 11:52:25;;;;;;;60.38;19.70;;;0.80;100.00;;;;;;5001692;28;20045;-82
2023/12/08 11:55:11;;;;;;;56.35;17.77;;;0.80;100.00;;;;;;5000403;28;20050;-83
2023/12/08 11:58:06;;;;;;;61.63;18.10;;;0.80;100.00;;;;;;5007437;28;20054;-83
2023/12/08 12:00:38;;;;;;;49.42;17.73;;;0.80;100.00;;;;;;5006812;28;20072;-83
2023/12/08 12:03:07;;;;;;;66.07;18.67;;;0.80;100.00;;;;;;5001007;28;20061;-83
2023/12/08 12:05:35;;;;;;;59.28;19.35;;;0.80;100.00;;;;;;5008478;28;20133;-83
2023/12/08 12:08:06;;;;;;;56.08;16.08;;;0.80;100.00;;;;;;5007941;28;20083;-83
2023/12/08 12:10:34;;;;;;;88.57;25.75;;;0.80;100.00;;;;;;5008840;28;20069;-83
2023/12/08 12:13:14;;;;;;;62.72;17.80;;;0.80;100.00;;;;;;5004508;28;20054;-82
2023/12/08 12:15:42;;;;;;;49.75;17.13;;;0.80;100.00;;;;;;5003976;28;20144;-83
2023/12/08 12:18:11;;;;;;;55.65;17.27;;;0.80;100.00;;;;;;5008942;28;20073;-82
2023/12/08 12:20:38;;;;;;;66.35;22.13;;;0.70;100.00;;;;;;5002098;28;20049;-82
2023/12/08 12:23:06;;;;;;;59.95;19.65;;;0.80;100.00;;;;;;5009372;28;20050;-82
2023/12/08 12:25:33;;;;;;;61.35;17.30;;;0.80;100.00;;;;;;5007031;28;20058;-83
2023/12/08 12:28:00;;;;;;;50.13;17.30;;;0.70;100.00;;;;;;5005839;28;20046;-83
2023/12/08 12:30:27;;;;;;;50.97;17.48;;;0.80;100.00;;;;;;5007641;28;20663;-82
2023/12/08 12:32:56;;;;;;;92.10;26.25;;;0.70;100.00;;;;;;5009893;28;20045;-82